Time;durP1;ratioP1;P1;durP2;ratioP2;P2;SDS_P1;SDS_P2;PMS_P1;PMS_P2;Temp;Humidity;BMP_temperature;BMP_pressure;BME280_temperature;BME280_humidity;BME280_pressure;Samples;Min_cycle;Max_cycle;Signal;HPM_P1;HPM_P2
2022/11/03 00:02:24;;;;;;;75.87;17.07;;;10.20;99.90;;;;;;5037171;28;20166;-84
2022/11/03 00:04:49;;;;;;;70.80;12.83;;;10.20;99.90;;;;;;5037023;28;20175;-84
2022/11/03 00:07:21;;;;;;;80.60;17.20;;;10.30;99.90;;;;;;5036803;28;20276;-84
2022/11/03 00:09:47;;;;;;;77.20;17.25;;;10.30;99.90;;;;;;5037193;28;20310;-84
2022/11/03 00:12:16;;;;;;;77.20;18.27;;;10.30;99.90;;;;;;5036808;28;20192;-84
2022/11/03 00:14:41;;;;;;;73.32;20.42;;;10.30;99.90;;;;;;5036998;28;20403;-84
2022/11/03 00:17:07;;;;;;;76.67;20.07;;;10.30;99.90;;;;;;5036029;28;20422;-84
2022/11/03 00:19:33;;;;;;;75.73;19.73;;;10.20;99.90;;;;;;5035804;28;20186;-84
2022/11/03 00:21:59;;;;;;;75.77;22.40;;;10.30;99.90;;;;;;5036995;28;20196;-84
2022/11/03 00:24:25;;;;;;;73.30;21.95;;;10.30;99.90;;;;;;5036909;28;20169;-84
2022/11/03 00:26:50;;;;;;;83.20;24.73;;;10.30;99.90;;;;;;5036377;28;20192;-84
2022/11/03 00:29:16;;;;;;;73.90;23.13;;;10.30;99.90;;;;;;5037041;28;20206;-84
2022/11/03 00:31:43;;;;;;;80.80;27.67;;;10.20;99.90;;;;;;5036770;28;20240;-84
2022/11/03 00:34:09;;;;;;;86.72;27.30;;;10.20;99.90;;;;;;5035624;28;20165;-84
2022/11/03 00:36:41;;;;;;;80.85;28.10;;;10.20;99.90;;;;;;5035478;28;20172;-84
2022/11/03 00:39:07;;;;;;;76.57;21.15;;;10.20;99.90;;;;;;5036828;28;20216;-84
2022/11/03 00:41:33;;;;;;;84.63;26.73;;;10.20;99.90;;;;;;5036540;28;20165;-84
2022/11/03 00:43:59;;;;;;;81.90;28.35;;;10.20;99.90;;;;;;5035019;28;20165;-84
2022/11/03 00:46:25;;;;;;;76.10;24.20;;;10.20;99.90;;;;;;5036219;28;20189;-84
2022/11/03 00:48:51;;;;;;;75.22;24.95;;;10.20;99.90;;;;;;5036762;28;20186;-84
2022/11/03 00:51:18;;;;;;;79.73;26.57;;;10.10;99.90;;;;;;5036198;28;20223;-84
2022/11/03 00:53:46;;;;;;;81.82;28.02;;;10.10;99.90;;;;;;5035114;28;20913;-84
2022/11/03 00:56:21;;;;;;;81.82;28.65;;;10.10;99.90;;;;;;5036802;28;20615;-84
2022/11/03 00:58:47;;;;;;;75.65;26.88;;;10.20;99.90;;;;;;5036266;28;20184;-84
2022/11/03 01:01:17;;;;;;;76.95;28.05;;;10.20;99.90;;;;;;5034552;28;20200;-84
2022/11/03 01:06:48;;;;;;;79.30;27.83;;;10.20;99.90;;;;;;5036753;28;20177;-84
2022/11/03 01:09:27;;;;;;;79.88;25.60;;;10.20;99.90;;;;;;5036125;28;20200;-84
2022/11/03 01:11:58;;;;;;;75.78;29.25;;;10.20;99.90;;;;;;5036076;28;20145;-84
2022/11/03 01:14:26;;;;;;;83.78;29.02;;;10.30;99.90;;;;;;5036165;28;20138;-84
2022/11/03 01:16:52;;;;;;;81.95;27.73;;;10.30;99.90;;;;;;5035796;28;20165;-84
2022/11/03 01:19:17;;;;;;;81.00;25.27;;;10.30;99.90;;;;;;5035690;28;20192;-84
2022/11/03 01:21:43;;;;;;;78.23;28.77;;;10.30;99.90;;;;;;5051518;28;20169;-84
2022/11/03 01:24:09;;;;;;;76.47;30.43;;;10.30;99.90;;;;;;5036007;28;20181;-84
2022/11/03 01:26:34;;;;;;;88.07;30.80;;;10.30;99.90;;;;;;5035751;28;20231;-84
2022/11/03 01:29:00;;;;;;;79.17;29.77;;;10.30;99.90;;;;;;5035904;28;20197;-84
2022/11/03 01:31:26;;;;;;;81.00;30.73;;;10.30;99.90;;;;;;5034592;28;20177;-84
2022/11/03 01:33:54;;;;;;;80.25;27.65;;;10.30;99.90;;;;;;5034632;28;20173;-84
2022/11/03 01:36:20;;;;;;;83.30;29.60;;;10.30;99.90;;;;;;5035783;28;20168;-84
2022/11/03 01:38:46;;;;;;;83.10;31.52;;;10.30;99.90;;;;;;5035767;28;20189;-84
2022/11/03 01:41:21;;;;;;;79.22;32.60;;;10.20;99.90;;;;;;5034550;28;20220;-84
2022/11/03 01:43:50;;;;;;;85.57;32.95;;;10.20;99.90;;;;;;5035893;28;20149;-84
2022/11/03 01:46:26;;;;;;;81.80;33.05;;;10.20;99.90;;;;;;5035834;28;20723;-84
2022/11/03 01:49:08;;;;;;;82.28;38.45;;;10.20;99.90;;;;;;5035491;28;20223;-84
2022/11/03 01:51:35;;;;;;;83.60;30.10;;;10.20;99.90;;;;;;5036241;28;20170;-84
2022/11/03 01:54:07;;;;;;;82.72;33.80;;;10.20;99.90;;;;;;5035458;28;20166;-84
2022/11/03 01:56:36;;;;;;;83.90;32.08;;;10.20;99.90;;;;;;5035463;28;20157;-84
2022/11/03 01:59:03;;;;;;;78.70;31.90;;;10.20;99.90;;;;;;5037392;28;20184;-84
2022/11/03 02:01:30;;;;;;;80.93;27.83;;;10.10;99.90;;;;;;5039571;28;20173;-84
2022/11/03 02:04:09;;;;;;;75.85;28.65;;;10.10;99.90;;;;;;5039269;28;20177;-84
2022/11/03 02:06:36;;;;;;;76.22;27.08;;;10.10;99.90;;;;;;5039705;28;20671;-84
2022/11/03 02:09:07;;;;;;;78.15;26.77;;;10.10;99.90;;;;;;5039708;28;20191;-84
2022/11/03 02:14:18;;;;;;;81.60;23.80;;;10.10;99.90;;;;;;5039475;28;20652;-84
2022/11/03 02:16:58;;;;;;;78.17;28.80;;;10.20;99.90;;;;;;5039376;28;20173;-84
2022/11/03 02:19:40;;;;;;;75.00;23.67;;;10.20;99.90;;;;;;5037891;28;20193;-84
2022/11/03 02:22:38;;;;;;;76.07;22.33;;;10.20;99.90;;;;;;5039496;28;20620;-84
2022/11/03 02:25:29;;;;;;;74.95;18.45;;;10.10;99.90;;;;;;5039254;28;20673;-84
2022/11/03 02:27:55;;;;;;;74.60;19.60;;;10.10;99.90;;;;;;5038984;28;20550;-84
2022/11/03 02:30:20;;;;;;;78.80;20.53;;;10.10;99.90;;;;;;5038845;28;20192;-84
2022/11/03 02:33:01;;;;;;;76.10;22.13;;;10.10;99.90;;;;;;5038984;28;20751;-84
2022/11/03 02:35:42;;;;;;;77.00;17.38;;;10.10;99.90;;;;;;5054391;28;20256;-84
2022/11/03 02:38:11;;;;;;;77.65;19.02;;;10.10;99.90;;;;;;5039054;28;20161;-84
2022/11/03 02:40:41;;;;;;;76.78;16.35;;;10.10;99.90;;;;;;5038618;28;20216;-84
2022/11/03 02:43:09;;;;;;;76.22;20.13;;;10.10;99.90;;;;;;5038486;28;20244;-84
2022/11/03 02:45:36;;;;;;;80.72;18.13;;;10.10;99.90;;;;;;5038192;28;20185;-84
2022/11/03 02:48:03;;;;;;;80.97;19.33;;;10.10;99.90;;;;;;5039012;28;20162;-84
2022/11/03 02:50:31;;;;;;;77.35;19.25;;;10.10;99.90;;;;;;5038161;28;20638;-84
2022/11/03 02:52:57;;;;;;;76.50;16.92;;;10.10;99.90;;;;;;5038462;28;20608;-84
2022/11/03 02:55:54;;;;;;;81.47;18.00;;;10.00;99.90;;;;;;5038381;28;20168;-84
2022/11/03 02:58:40;;;;;;;75.13;15.68;;;10.00;99.90;;;;;;5038608;28;20146;-84
2022/11/03 03:01:17;;;;;;;71.60;16.23;;;10.00;99.90;;;;;;5038300;28;20301;-84
2022/11/03 03:04:09;;;;;;;72.05;15.68;;;10.00;99.90;;;;;;5038320;28;20149;-84
2022/11/03 03:06:47;;;;;;;77.25;16.75;;;10.00;99.90;;;;;;5035597;28;20276;-84
2022/11/03 03:09:19;;;;;;;71.10;14.73;;;10.00;99.90;;;;;;5038336;28;20177;-84
2022/11/03 03:11:46;;;;;;;77.10;15.45;;;10.00;99.90;;;;;;5037112;28;20185;-84
2022/11/03 03:14:21;;;;;;;87.65;17.35;;;10.00;99.90;;;;;;5037650;28;20719;-84
2022/11/03 03:17:13;;;;;;;75.65;18.23;;;10.00;99.90;;;;;;5037042;28;20171;-84
2022/11/03 03:19:59;;;;;;;76.05;16.10;;;10.10;99.90;;;;;;5038133;28;20610;-84
2022/11/03 03:22:53;;;;;;;72.10;14.70;;;10.10;99.90;;;;;;5038183;28;20149;-84
2022/11/03 03:25:40;;;;;;;76.10;14.80;;;10.10;99.90;;;;;;5037092;28;20576;-84
2022/11/03 03:28:10;;;;;;;81.30;17.52;;;10.10;99.90;;;;;;5038194;28;20149;-84
2022/11/03 03:30:38;;;;;;;79.95;17.70;;;10.10;99.90;;;;;;5037795;28;20197;-84
2022/11/03 03:33:06;;;;;;;78.13;17.73;;;10.10;99.90;;;;;;5053482;28;20257;-84
2022/11/03 03:35:33;;;;;;;72.88;15.57;;;10.10;99.90;;;;;;5037574;28;20230;-85
2022/11/03 03:38:07;;;;;;;74.82;13.95;;;10.10;99.90;;;;;;5038166;28;20266;-84
2022/11/03 03:40:39;;;;;;;71.85;14.80;;;10.20;99.90;;;;;;5038093;28;20181;-84
2022/11/03 03:43:08;;;;;;;71.00;12.38;;;10.20;99.90;;;;;;5037230;28;20506;-84
2022/11/03 03:45:35;;;;;;;77.05;14.07;;;10.30;99.90;;;;;;5037227;28;20189;-84
2022/11/03 03:48:02;;;;;;;75.28;12.43;;;10.30;99.90;;;;;;5036445;28;20165;-84
2022/11/03 03:50:33;;;;;;;73.82;10.88;;;10.20;99.90;;;;;;5036458;28;20185;-84
2022/11/03 03:53:05;;;;;;;73.95;14.65;;;10.20;99.90;;;;;;5037706;28;20145;-84
2022/11/03 03:55:39;;;;;;;75.35;12.55;;;10.20;99.90;;;;;;5037619;28;20170;-84
2022/11/03 03:58:06;;;;;;;78.47;12.30;;;10.20;99.90;;;;;;5037414;28;20622;-84
2022/11/03 04:00:32;;;;;;;78.88;10.95;;;10.10;99.90;;;;;;5036019;28;20223;-84
2022/11/03 04:02:58;;;;;;;73.50;13.60;;;10.10;99.90;;;;;;5037281;28;20276;-85
2022/11/03 04:05:25;;;;;;;70.75;12.88;;;10.10;99.90;;;;;;5037527;28;20256;-84
2022/11/03 04:07:51;;;;;;;76.35;12.85;;;10.10;99.90;;;;;;5036238;28;20171;-84
2022/11/03 04:10:19;;;;;;;74.67;13.03;;;10.20;99.90;;;;;;5037154;28;20224;-84
2022/11/03 04:23:43;;;;;;;76.05;14.55;;;10.20;99.90;;;;;;5037381;28;20192;-84
2022/11/03 04:26:14;;;;;;;74.87;17.80;;;10.20;99.90;;;;;;5037045;28;20192;-84
2022/11/03 04:28:41;;;;;;;73.22;15.35;;;10.20;99.90;;;;;;5035873;28;20457;-84
2022/11/03 04:31:18;;;;;;;75.30;19.92;;;10.20;99.90;;;;;;5035133;28;20641;-84
2022/11/03 04:33:44;;;;;;;77.70;19.42;;;10.20;99.90;;;;;;5036255;28;20161;-84
2022/11/03 04:36:18;;;;;;;80.47;20.13;;;10.20;99.90;;;;;;5034490;28;20200;-84
2022/11/03 04:38:44;;;;;;;75.43;19.98;;;10.20;99.90;;;;;;5034909;28;20193;-84
2022/11/03 04:41:20;;;;;;;81.47;19.77;;;10.20;99.90;;;;;;5051104;28;20184;-84
2022/11/03 04:43:46;;;;;;;85.88;23.23;;;10.20;99.90;;;;;;5036223;28;20232;-84
2022/11/03 04:46:15;;;;;;;76.10;21.13;;;10.20;99.90;;;;;;5035942;28;20289;-85
2022/11/03 04:48:42;;;;;;;79.75;25.35;;;10.30;99.90;;;;;;5035954;28;20600;-85
2022/11/03 04:51:16;;;;;;;80.55;28.30;;;10.30;99.90;;;;;;5035962;28;20173;-84
2022/11/03 04:54:02;;;;;;;80.00;23.20;;;10.30;99.90;;;;;;5034843;28;20218;-84
2022/11/03 04:56:28;;;;;;;77.82;26.50;;;10.30;99.90;;;;;;5035948;28;20161;-84
2022/11/03 04:58:54;;;;;;;79.35;23.40;;;10.30;99.90;;;;;;5035431;28;20250;-84
2022/11/03 05:01:23;;;;;;;84.00;27.20;;;10.30;99.90;;;;;;5035472;28;20633;-84
2022/11/03 05:03:52;;;;;;;76.60;21.67;;;10.30;99.90;;;;;;5035294;28;20174;-84
2022/11/03 05:06:25;;;;;;;82.72;21.65;;;10.30;99.90;;;;;;5035960;28;20567;-84
2022/11/03 05:08:55;;;;;;;77.15;21.58;;;10.30;99.90;;;;;;5033915;28;20534;-84
2022/11/03 05:11:23;;;;;;;73.38;21.73;;;10.30;99.90;;;;;;5035509;28;20146;-84
2022/11/03 05:13:49;;;;;;;80.25;23.35;;;10.30;99.90;;;;;;5033745;28;20170;-84
2022/11/03 05:16:16;;;;;;;79.05;25.33;;;10.30;99.90;;;;;;5035219;28;20177;-84
2022/11/03 05:18:45;;;;;;;78.63;24.58;;;10.30;99.90;;;;;;5035459;28;20186;-84
2022/11/03 05:21:14;;;;;;;73.15;21.83;;;10.30;99.90;;;;;;5035323;28;20169;-84
2022/11/03 05:23:47;;;;;;;74.25;19.98;;;10.30;99.90;;;;;;5035052;28;20518;-84
2022/11/03 05:26:18;;;;;;;76.10;21.73;;;10.30;99.90;;;;;;5035747;28;20177;-84
2022/11/03 05:31:20;;;;;;;81.10;22.02;;;10.40;99.90;;;;;;5043378;28;20214;-86
2022/11/03 05:33:48;;;;;;;74.97;22.42;;;10.40;99.90;;;;;;5047987;28;20156;-84
2022/11/03 05:36:19;;;;;;;79.20;18.85;;;10.50;99.90;;;;;;5049558;28;20173;-84
2022/11/03 05:38:44;;;;;;;85.57;27.25;;;10.50;99.90;;;;;;5065610;28;20190;-86
2022/11/03 05:41:25;;;;;;;77.77;25.33;;;10.50;99.90;;;;;;5054382;28;20161;-85
2022/11/03 05:44:25;;;;;;;77.50;23.85;;;10.50;99.90;;;;;;5052043;28;20498;-85
2022/11/03 05:46:50;;;;;;;76.65;26.13;;;10.50;99.90;;;;;;5069228;28;20192;-85
2022/11/03 05:49:17;;;;;;;78.07;21.10;;;10.60;99.90;;;;;;5048203;28;20185;-85
2022/11/03 05:51:44;;;;;;;75.28;22.60;;;10.60;99.90;;;;;;5052749;28;20401;-84
2022/11/03 05:54:22;;;;;;;77.43;24.90;;;10.60;99.90;;;;;;5052717;28;20192;-84
2022/11/03 05:56:48;;;;;;;74.90;24.02;;;10.70;99.90;;;;;;5053544;28;20153;-84
2022/11/03 05:59:21;;;;;;;81.47;23.05;;;10.70;99.90;;;;;;5053784;28;20273;-84
2022/11/03 06:01:48;;;;;;;79.30;17.13;;;10.70;99.90;;;;;;5049249;28;20192;-86
2022/11/03 06:04:16;;;;;;;76.13;14.95;;;10.80;99.90;;;;;;5048935;28;20173;-84
2022/11/03 06:06:42;;;;;;;72.20;13.73;;;10.70;99.90;;;;;;5049594;28;20203;-85
2022/11/03 06:09:16;;;;;;;73.47;14.37;;;10.70;99.90;;;;;;5048127;28;20233;-85
2022/11/03 06:11:42;;;;;;;72.70;17.42;;;10.70;99.90;;;;;;5048607;28;20169;-84
2022/11/03 06:14:19;;;;;;;77.93;16.77;;;10.70;99.90;;;;;;5049558;28;20679;-85
2022/11/03 06:17:04;;;;;;;77.82;18.98;;;10.70;99.90;;;;;;5048447;28;20214;-85
2022/11/03 06:19:38;;;;;;;75.07;24.95;;;10.70;99.90;;;;;;5049376;28;20256;-85
2022/11/03 06:22:16;;;;;;;78.57;21.88;;;10.70;99.90;;;;;;5053245;28;20189;-85
2022/11/03 06:24:42;;;;;;;79.68;27.90;;;10.80;99.90;;;;;;5053218;28;20734;-85
2022/11/03 06:27:22;;;;;;;85.30;23.25;;;10.80;99.90;;;;;;5048721;28;20197;-84
2022/11/03 06:30:22;;;;;;;75.13;24.70;;;10.80;99.90;;;;;;5048750;28;20200;-83
2022/11/03 06:32:48;;;;;;;76.43;26.52;;;10.90;99.90;;;;;;5042668;28;20169;-84
2022/11/03 06:35:14;;;;;;;83.97;29.80;;;10.90;99.90;;;;;;5049823;28;20199;-84
2022/11/03 06:37:41;;;;;;;81.17;29.30;;;10.90;99.90;;;;;;5050517;28;20475;-84
2022/11/03 06:40:10;;;;;;;80.70;25.83;;;10.90;99.90;;;;;;5051017;28;20189;-85
2022/11/03 06:42:40;;;;;;;73.63;20.02;;;11.00;99.90;;;;;;5050480;28;20177;-84
2022/11/03 06:45:19;;;;;;;75.47;19.90;;;11.00;99.90;;;;;;5049730;28;20166;-84
2022/11/03 06:47:44;;;;;;;73.68;17.65;;;11.10;99.90;;;;;;5049521;28;20224;-84
2022/11/03 06:50:31;;;;;;;73.00;19.90;;;11.10;99.90;;;;;;5047833;28;20189;-84
2022/11/03 06:53:00;;;;;;;74.45;17.15;;;11.10;99.90;;;;;;5061813;28;20585;-84
2022/11/03 06:55:31;;;;;;;76.38;18.73;;;11.10;99.90;;;;;;5044979;28;20175;-84
2022/11/03 06:58:33;;;;;;;82.45;18.70;;;11.20;99.90;;;;;;5047441;28;20232;-84
2022/11/03 07:01:02;;;;;;;75.63;21.60;;;11.10;99.90;;;;;;5048096;28;20228;-86
2022/11/03 07:03:32;;;;;;;82.88;20.63;;;11.10;99.90;;;;;;5048430;28;20157;-83
2022/11/03 07:06:20;;;;;;;77.00;22.02;;;11.10;99.90;;;;;;5044900;28;20192;-86
2022/11/03 07:09:08;;;;;;;79.88;22.65;;;11.00;99.90;;;;;;5044731;28;20197;-84
2022/11/03 07:11:49;;;;;;;78.78;17.20;;;11.00;99.90;;;;;;5044532;28;20478;-84
2022/11/03 07:14:33;;;;;;;80.45;18.52;;;11.10;99.90;;;;;;5043955;28;20145;-84
2022/11/03 07:17:05;;;;;;;81.25;20.55;;;11.10;99.90;;;;;;5046310;28;20145;-84
2022/11/03 07:19:42;;;;;;;81.72;18.48;;;11.10;99.90;;;;;;5044403;28;20195;-84
2022/11/03 07:22:17;;;;;;;70.47;15.20;;;11.20;99.90;;;;;;5045856;28;20157;-84
2022/11/03 07:24:49;;;;;;;76.18;19.52;;;11.20;99.90;;;;;;5044536;28;20189;-84
2022/11/03 07:27:35;;;;;;;71.80;17.10;;;11.30;99.90;;;;;;5044805;28;20190;-86
2022/11/03 07:30:13;;;;;;;82.75;17.17;;;11.30;99.90;;;;;;5044735;28;20252;-86
2022/11/03 07:32:39;;;;;;;72.80;17.10;;;11.40;99.90;;;;;;5048614;28;20213;-85
2022/11/03 07:35:15;;;;;;;75.57;14.37;;;11.40;99.90;;;;;;5044227;28;20264;-85
2022/11/03 07:37:42;;;;;;;78.13;16.58;;;11.50;99.90;;;;;;5048666;28;20387;-85
2022/11/03 07:40:25;;;;;;;74.07;14.18;;;11.60;99.90;;;;;;5043626;28;20243;-85
2022/11/03 07:42:54;;;;;;;82.00;17.30;;;11.70;99.90;;;;;;5044299;28;20180;-85
2022/11/03 07:45:39;;;;;;;74.85;15.07;;;11.80;99.90;;;;;;5046705;28;20596;-85
2022/11/03 07:48:43;;;;;;;79.78;13.43;;;11.90;99.90;;;;;;5047330;28;20714;-85
2022/11/03 07:51:22;;;;;;;75.80;21.92;;;12.00;99.90;;;;;;5046645;28;20213;-85
2022/11/03 07:53:52;;;;;;;80.05;19.80;;;12.10;99.90;;;;;;5046629;28;20200;-85
2022/11/03 07:56:26;;;;;;;81.95;21.45;;;12.20;99.90;;;;;;5045982;28;20684;-84
2022/11/03 07:59:06;;;;;;;81.13;18.30;;;12.20;99.90;;;;;;5046216;28;20192;-85
2022/11/03 08:01:35;;;;;;;77.85;27.05;;;12.30;99.90;;;;;;5044615;28;20175;-85
2022/11/03 08:04:05;;;;;;;74.43;22.90;;;12.40;99.90;;;;;;5048837;28;20192;-85
2022/11/03 08:06:31;;;;;;;77.75;25.85;;;12.40;99.90;;;;;;5048816;28;20216;-85
2022/11/03 08:08:57;;;;;;;75.88;24.10;;;12.40;99.90;;;;;;5048183;28;20259;-85
2022/11/03 08:11:23;;;;;;;79.40;35.50;;;12.40;99.90;;;;;;5049164;28;20165;-85
2022/11/03 08:13:50;;;;;;;75.87;22.60;;;12.50;99.90;;;;;;5047267;28;20170;-85
2022/11/03 08:16:19;;;;;;;76.75;17.45;;;12.50;99.90;;;;;;5044237;28;20165;-85
2022/11/03 08:18:45;;;;;;;74.20;21.30;;;12.60;99.90;;;;;;5049694;28;20267;-85
2022/11/03 08:21:11;;;;;;;90.87;32.03;;;12.60;99.90;;;;;;5048754;28;20165;-85
2022/11/03 08:23:39;;;;;;;78.10;25.33;;;12.60;99.90;;;;;;5046051;28;20490;-85
2022/11/03 08:26:05;;;;;;;79.72;27.40;;;12.60;99.90;;;;;;5044361;28;20192;-85
2022/11/03 08:28:32;;;;;;;74.50;21.35;;;12.70;99.90;;;;;;5043121;28;20157;-85
2022/11/03 08:31:03;;;;;;;82.50;31.70;;;12.80;99.90;;;;;;5047865;28;20181;-85
2022/11/03 08:33:29;;;;;;;71.72;14.80;;;12.80;99.90;;;;;;5048332;28;20211;-85
2022/11/03 08:35:55;;;;;;;71.03;13.32;;;12.90;99.90;;;;;;5048181;28;20173;-85
2022/11/03 08:38:21;;;;;;;79.83;13.07;;;12.90;99.90;;;;;;5048546;28;20220;-85
2022/11/03 08:40:47;;;;;;;75.37;13.63;;;12.90;99.90;;;;;;5047993;28;20165;-85
2022/11/03 08:43:12;;;;;;;72.07;9.27;;;13.00;99.90;;;;;;5047760;28;20474;-85
2022/11/03 08:45:38;;;;;;;71.60;11.90;;;13.10;99.90;;;;;;5048856;28;20204;-85
2022/11/03 08:48:04;;;;;;;78.90;14.20;;;13.10;99.90;;;;;;5047993;28;20165;-85
2022/11/03 08:50:30;;;;;;;80.90;13.38;;;13.10;99.90;;;;;;5048798;28;20177;-84
2022/11/03 08:52:55;;;;;;;73.53;9.53;;;13.20;99.90;;;;;;5064262;28;20250;-85
2022/11/03 08:55:21;;;;;;;75.60;9.77;;;13.20;99.90;;;;;;5064326;28;20193;-84
2022/11/03 08:57:47;;;;;;;71.60;8.20;;;13.20;99.90;;;;;;5045962;28;20169;-84
2022/11/03 09:00:15;;;;;;;70.13;10.13;;;13.30;99.90;;;;;;5039385;28;20189;-85
2022/11/03 09:02:41;;;;;;;75.32;9.50;;;13.30;99.90;;;;;;5041190;28;20168;-85
2022/11/03 09:05:07;;;;;;;70.17;7.07;;;13.30;99.90;;;;;;5042739;28;20172;-85
2022/11/03 09:07:33;;;;;;;75.38;9.05;;;13.30;99.90;;;;;;5043182;28;20438;-84
2022/11/03 09:09:59;;;;;;;69.87;7.00;;;13.30;99.90;;;;;;5043250;28;20209;-85
2022/11/03 09:12:24;;;;;;;69.40;7.17;;;13.30;99.90;;;;;;5043450;28;20260;-84
2022/11/03 09:14:50;;;;;;;70.60;7.47;;;13.40;99.90;;;;;;5043153;28;20165;-85
2022/11/03 09:17:16;;;;;;;69.90;6.07;;;13.40;99.90;;;;;;5045656;28;20204;-85
2022/11/03 09:19:41;;;;;;;70.27;6.13;;;13.40;99.90;;;;;;5045662;28;20196;-84
2022/11/03 09:22:07;;;;;;;69.93;7.67;;;13.30;99.90;;;;;;5045433;28;20164;-85
2022/11/03 09:24:32;;;;;;;74.77;6.53;;;13.40;99.90;;;;;;5049197;28;20223;-85
2022/11/03 09:26:58;;;;;;;71.27;7.80;;;13.40;99.90;;;;;;5046129;28;20185;-85
2022/11/03 09:29:24;;;;;;;69.45;7.35;;;13.40;99.90;;;;;;5060628;28;20193;-85
2022/11/03 09:31:50;;;;;;;70.27;7.00;;;13.40;99.90;;;;;;5047722;28;20161;-86
2022/11/03 09:34:15;;;;;;;77.53;9.97;;;13.50;99.90;;;;;;5044511;28;20169;-85
2022/11/03 09:36:41;;;;;;;75.87;7.80;;;13.50;99.90;;;;;;5044511;28;20153;-85
2022/11/03 09:39:07;;;;;;;78.50;8.90;;;13.50;99.90;;;;;;5061828;28;20196;-85
2022/11/03 09:41:33;;;;;;;70.80;6.23;;;13.50;99.90;;;;;;5043927;28;20389;-84
2022/11/03 09:44:00;;;;;;;67.00;6.30;;;13.50;99.90;;;;;;5043835;28;20169;-84
2022/11/03 09:46:29;;;;;;;76.13;6.60;;;13.50;99.90;;;;;;5045508;28;20542;-85
2022/11/03 09:48:55;;;;;;;71.30;6.00;;;13.60;99.90;;;;;;5040839;28;20416;-84
2022/11/03 09:51:23;;;;;;;70.53;6.17;;;13.60;99.90;;;;;;5040714;28;20188;-84
2022/11/03 09:53:49;;;;;;;70.87;6.27;;;13.60;99.90;;;;;;5043011;28;20423;-84
2022/11/03 09:56:19;;;;;;;70.97;5.87;;;13.60;99.90;;;;;;5039762;28;20415;-84
2022/11/03 09:58:45;;;;;;;67.07;6.27;;;13.60;99.90;;;;;;5043622;28;20292;-85
2022/11/03 10:01:11;;;;;;;68.90;6.33;;;13.50;99.90;;;;;;5057941;28;20420;-84
2022/11/03 10:03:38;;;;;;;69.07;6.60;;;13.50;99.90;;;;;;5043512;28;20233;-85
2022/11/03 10:06:04;;;;;;;67.87;5.70;;;13.50;99.90;;;;;;5043712;28;20443;-85
2022/11/03 10:08:32;;;;;;;74.03;6.77;;;13.50;99.90;;;;;;5044567;28;20458;-85
2022/11/03 10:11:00;;;;;;;68.70;6.47;;;13.50;99.90;;;;;;5042899;28;20407;-85
2022/11/03 10:13:31;;;;;;;67.80;6.20;;;13.60;99.90;;;;;;5040404;28;20423;-84
2022/11/03 10:15:59;;;;;;;70.60;5.57;;;13.60;99.90;;;;;;5043366;28;20412;-85
2022/11/03 10:18:26;;;;;;;76.13;5.80;;;13.70;99.90;;;;;;5043804;28;20423;-84
2022/11/03 10:20:52;;;;;;;73.50;6.20;;;13.80;99.90;;;;;;5045338;28;20414;-85
2022/11/03 10:23:18;;;;;;;71.60;6.07;;;13.80;99.90;;;;;;5049256;28;20903;-84
2022/11/03 10:25:45;;;;;;;69.03;6.13;;;13.80;99.90;;;;;;5051497;28;20197;-84
2022/11/03 10:28:22;;;;;;;74.33;6.70;;;13.80;99.90;;;;;;5050876;28;20165;-84
2022/11/03 10:30:50;;;;;;;68.97;5.80;;;13.70;99.90;;;;;;5050313;28;20431;-86
2022/11/03 10:33:33;;;;;;;67.17;6.10;;;13.70;99.90;;;;;;5051103;28;20400;-85
2022/11/03 10:36:06;;;;;;;69.55;5.93;;;13.70;99.90;;;;;;5048959;28;20408;-85
2022/11/03 10:38:35;;;;;;;67.50;6.80;;;13.60;99.90;;;;;;5050220;28;20664;-85
2022/11/03 10:41:17;;;;;;;72.20;7.20;;;13.60;99.90;;;;;;5054044;28;20412;-85
2022/11/03 10:43:57;;;;;;;71.53;6.30;;;13.60;99.90;;;;;;5050854;28;20407;-85
2022/11/03 10:46:23;;;;;;;66.83;5.87;;;13.60;99.90;;;;;;5047467;28;20458;-85
2022/11/03 10:49:09;;;;;;;70.63;5.40;;;13.60;99.90;;;;;;5045907;28;20428;-84
2022/11/03 10:51:35;;;;;;;69.90;5.95;;;13.60;99.90;;;;;;5042351;28;20204;-85
2022/11/03 10:54:07;;;;;;;74.03;7.60;;;13.50;99.90;;;;;;5063551;28;20628;-84
2022/11/03 10:56:34;;;;;;;72.67;6.20;;;13.50;99.90;;;;;;5045993;28;20473;-85
2022/11/03 10:59:01;;;;;;;70.87;5.63;;;13.50;99.90;;;;;;5049783;28;20480;-85
2022/11/03 11:01:27;;;;;;;69.38;7.05;;;13.40;99.90;;;;;;5048760;28;20399;-85
2022/11/03 11:03:54;;;;;;;72.87;5.83;;;13.40;99.90;;;;;;5045424;28;20706;-84
2022/11/03 11:06:22;;;;;;;67.72;5.72;;;13.40;99.90;;;;;;5044057;28;20683;-85
2022/11/03 11:08:50;;;;;;;74.97;5.90;;;13.40;99.90;;;;;;5044868;28;20264;-85
2022/11/03 11:11:17;;;;;;;67.87;6.40;;;13.40;99.90;;;;;;5044768;28;20903;-84
2022/11/03 11:13:43;;;;;;;68.50;6.00;;;13.50;99.90;;;;;;5045529;28;20392;-84
2022/11/03 11:16:45;;;;;;;70.07;6.70;;;13.50;99.90;;;;;;5045993;28;20400;-85
2022/11/03 11:19:11;;;;;;;68.00;6.37;;;13.40;99.90;;;;;;5045734;28;20443;-85
2022/11/03 11:21:37;;;;;;;74.03;5.77;;;13.40;99.90;;;;;;5046983;28;20403;-85
2022/11/03 11:24:32;;;;;;;74.17;7.23;;;13.40;99.90;;;;;;5046088;28;20457;-85
2022/11/03 11:26:58;;;;;;;69.45;7.38;;;13.40;99.90;;;;;;5042016;28;20339;-85
2022/11/03 11:29:33;;;;;;;70.57;5.00;;;13.40;99.90;;;;;;5128433;22;21682;-83
2022/11/03 11:32:19;;;;;;;70.57;6.00;;;13.40;99.90;;;;;;5079735;28;20167;-82
2022/11/03 11:34:45;;;;;;;69.90;7.10;;;13.40;99.90;;;;;;5080204;28;20386;-82
2022/11/03 11:37:10;;;;;;;69.77;5.90;;;13.40;99.90;;;;;;5080912;28;20403;-82
2022/11/03 11:39:43;;;;;;;70.07;6.50;;;13.40;99.90;;;;;;5080601;28;20191;-82
2022/11/03 11:42:12;;;;;;;67.97;6.10;;;13.40;99.90;;;;;;5081075;28;20168;-82
2022/11/03 11:44:53;;;;;;;72.50;6.10;;;13.50;99.90;;;;;;5078582;28;20669;-82
2022/11/03 11:47:42;;;;;;;73.97;6.50;;;13.50;99.90;;;;;;5081341;28;20508;-82
2022/11/03 11:50:09;;;;;;;69.07;6.63;;;13.50;99.90;;;;;;5080676;28;20590;-82
2022/11/03 11:52:45;;;;;;;74.45;6.70;;;13.40;99.90;;;;;;5080148;28;20402;-82
2022/11/03 11:55:30;;;;;;;71.80;7.20;;;13.40;99.90;;;;;;5079770;28;20504;-82
2022/11/03 11:57:58;;;;;;;68.00;5.93;;;13.40;99.90;;;;;;5080961;28;20385;-82
2022/11/03 12:00:27;;;;;;;70.80;6.43;;;13.40;99.90;;;;;;5061324;28;20192;-82
2022/11/03 12:02:54;;;;;;;70.60;5.65;;;13.30;99.90;;;;;;5080423;28;20524;-82
2022/11/03 12:05:27;;;;;;;70.83;5.90;;;13.30;99.90;;;;;;5080655;28;20167;-82
2022/11/03 12:07:54;;;;;;;73.57;6.57;;;13.30;99.90;;;;;;5081414;28;20406;-82
2022/11/03 12:10:25;;;;;;;68.30;6.43;;;13.20;99.90;;;;;;5080036;28;20667;-82
2022/11/03 12:12:51;;;;;;;70.97;6.63;;;13.20;99.90;;;;;;5081161;28;20176;-82
2022/11/03 12:15:48;;;;;;;68.90;6.43;;;13.30;99.90;;;;;;5080678;28;20500;-85
2022/11/03 12:18:31;;;;;;;75.68;6.75;;;13.30;99.90;;;;;;5079092;28;20397;-85
2022/11/03 12:20:57;;;;;;;74.25;7.70;;;13.40;99.90;;;;;;5078866;28;20187;-85
2022/11/03 12:23:43;;;;;;;70.28;6.00;;;13.40;99.90;;;;;;5079352;28;20168;-85
2022/11/03 12:26:27;;;;;;;66.63;5.78;;;13.50;99.90;;;;;;5078238;28;20234;-85
2022/11/03 12:28:53;;;;;;;67.60;5.20;;;13.60;99.90;;;;;;5080169;28;20263;-85
2022/11/03 12:31:20;;;;;;;69.82;7.05;;;13.50;99.90;;;;;;5079846;28;20416;-85
2022/11/03 12:33:48;;;;;;;72.37;6.30;;;13.50;99.90;;;;;;5079144;28;20160;-85
2022/11/03 12:36:14;;;;;;;72.35;5.65;;;13.50;99.90;;;;;;5079556;28;20459;-85
2022/11/03 12:38:40;;;;;;;67.13;6.90;;;13.50;99.90;;;;;;5078280;28;20171;-85
2022/11/03 12:41:20;;;;;;;67.00;6.50;;;13.50;99.90;;;;;;5078278;28;20168;-85
2022/11/03 12:43:50;;;;;;;69.87;6.00;;;13.50;99.90;;;;;;5079786;28;20147;-85
2022/11/03 12:46:18;;;;;;;66.50;6.60;;;13.50;99.90;;;;;;5080574;28;20488;-85
2022/11/03 12:48:46;;;;;;;69.13;6.23;;;13.50;99.90;;;;;;5081289;28;20789;-85
2022/11/03 12:51:23;;;;;;;70.20;6.63;;;13.50;99.90;;;;;;5081700;28;20905;-85
2022/11/03 12:53:50;;;;;;;73.32;6.25;;;13.40;99.90;;;;;;5079082;28;20456;-84
2022/11/03 12:56:17;;;;;;;74.20;5.90;;;13.40;99.90;;;;;;5077885;28;20252;-85
2022/11/03 12:58:43;;;;;;;69.72;6.30;;;13.40;99.90;;;;;;5078124;28;20179;-85
2022/11/03 13:01:09;;;;;;;66.63;5.43;;;13.40;99.90;;;;;;5077431;28;20224;-85
2022/11/03 13:03:35;;;;;;;68.57;6.93;;;13.40;99.90;;;;;;5077732;28;20500;-84
2022/11/03 13:06:03;;;;;;;72.00;7.70;;;13.50;99.90;;;;;;5078995;28;20442;-85
2022/11/03 13:08:32;;;;;;;74.20;7.87;;;13.50;99.90;;;;;;5077812;28;20168;-85
2022/11/03 13:12:29;;;;;;;72.00;6.97;;;13.50;99.90;;;;;;5078069;28;20493;-85